sensor_id;sensor_type;location;lat;lon;timestamp;pressure;altitude;pressure_sealevel;temperature;humidity
55014;BME280;40916;51.632;5.552;2022-08-30T00:00:48;1016.82784527405;;;16.496874988772998;0
55014;BME280;40916;51.632;5.552;2022-08-30T00:01:46;1016.8651029472925;;;16.483922288755522;0
55014;BME280;40916;51.632;5.552;2022-08-30T00:02:47;1016.8688586220529;;;16.503350844352813;0
55014;BME280;40916;51.632;5.552;2022-08-30T00:03:47;1016.7942663283345;;;16.477445444127905;0
55014;BME280;40916;51.632;5.552;2022-08-30T00:04:47;1016.8315642211408;;;16.490398803605554;0
55014;BME280;40916;51.632;5.552;2022-08-30T00:05:47;1016.8203810868789;;;16.490398803605554;0
55014;BME280;40916;51.632;5.552;2022-08-30T00:06:47;1016.8054491471877;;;16.477445444127905;0
55014;BME280;40916;51.632;5.552;2022-08-30T00:07:47;1016.8278018306838;;;16.470968269627672;0
55014;BME280;40916;51.632;5.552;2022-08-30T00:08:47;1016.8166049667279;;;16.464490765159752;0
55014;BME280;40916;51.632;5.552;2022-08-30T00:09:47;1016.861335006085;;;16.464490765159752;0
55014;BME280;40916;51.632;5.552;2022-08-30T00:10:47;1016.8725175186775;;;16.464490765159752;0
55014;BME280;40916;51.632;5.552;2022-08-30T00:11:47;1016.8538463607707;;;16.45153476594039;0
55014;BME280;40916;51.632;5.552;2022-08-30T00:12:47;1016.76811620533;;;16.45153476594039;0
55014;BME280;40916;51.632;5.552;2022-08-30T00:13:48;1016.8389367638706;;;16.45153476594039;0
55014;BME280;40916;51.632;5.552;2022-08-30T00:14:47;1016.7531281858429;;;16.425618803702314;0
55014;BME280;40916;51.632;5.552;2022-08-30T00:15:48;1016.797854445106;;;16.425618803702314;0
55014;BME280;40916;51.632;5.552;2022-08-30T00:16:48;1016.7382194366701;;;16.425618803702314;0
55014;BME280;40916;51.632;5.552;2022-08-30T00:17:48;1016.7232879985282;;;16.419138986795566;0
55014;BME280;40916;51.632;5.552;2022-08-30T00:18:48;1016.8014486944575;;;16.39321641091882;0
55014;BME280;40916;51.632;5.552;2022-08-30T00:19:48;1016.7194266578596;;;16.386734939409926;0
55014;BME280;40916;51.632;5.552;2022-08-30T00:20:48;1016.7044224472555;;;16.367288537259338;0
55014;BME280;40916;51.632;5.552;2022-08-30T00:21:48;1016.7751940448358;;;16.360805740349115;0
55014;BME280;40916;51.632;5.552;2022-08-30T00:22:48;1016.7228654711678;;;16.334871235856014;0
55014;BME280;40916;51.632;5.552;2022-08-30T00:23:48;1016.793624843134;;;16.328386780040763;0
55014;BME280;40916;51.632;5.552;2022-08-30T00:24:48;1016.7524977321015;;;16.308931419800377;0
55014;BME280;40916;51.632;5.552;2022-08-30T00:25:48;1016.688953203782;;;16.282986286042505;0
55014;BME280;40916;51.632;5.552;2022-08-30T00:26:48;1016.7708161556264;;;16.27001172310399;0
55014;BME280;40916;51.632;5.552;2022-08-30T00:27:48;1016.7818781229956;;;16.257035828433242;0
55014;BME280;40916;51.632;5.552;2022-08-30T00:28:49;1016.8152882006059;;;16.244058601260132;0
55014;BME280;40916;51.632;5.552;2022-08-30T00:29:49;1016.8114345335403;;;16.23108004081394;0
55014;BME280;40916;51.632;5.552;2022-08-30T00:30:49;1016.7888092623296;;;16.20511891701645;0
55014;BME280;40916;51.632;5.552;2022-08-30T00:31:49;1016.8297168397338;;;16.198627801565497;0
55014;BME280;40916;51.632;5.552;2022-08-30T00:32:49;1016.833368758226;;;16.192136352120734;0
55014;BME280;40916;51.632;5.552;2022-08-30T00:33:49;1016.8069851625297;;;16.166167212469848;0
55014;BME280;40916;51.632;5.552;2022-08-30T00:34:50;1016.8179984715846;;;16.15318063616668;0
55014;BME280;40916;51.632;5.552;2022-08-30T00:35:49;1016.8102079584436;;;16.12720346673043;0
55014;BME280;40916;51.632;5.552;2022-08-30T00:36:49;1016.8135694019574;;;16.101220936348;0
55014;BME280;40916;51.632;5.552;2022-08-30T00:37:49;1016.7723134123011;;;16.08173051670133;0
55014;BME280;40916;51.632;5.552;2022-08-30T00:38:49;1016.8280809024161;;;16.07523303880345;0
55014;BME280;40916;51.632;5.552;2022-08-30T00:39:49;1016.7381869659955;;;16.04274060981588;0
55014;BME280;40916;51.632;5.552;2022-08-30T00:40:50;1016.7264709082856;;;16.010239772728923;0
55014;BME280;40916;51.632;5.552;2022-08-30T00:41:50;1016.774880881942;;;16.010239772728923;0
55014;BME280;40916;51.632;5.552;2022-08-30T00:42:50;1016.7670881991826;;;15.990735229513149;0
55014;BME280;40916;51.632;5.552;2022-08-30T00:43:50;1016.7594039408497;;;15.97773051533855;0
55014;BME280;40916;51.632;5.552;2022-08-30T00:44:50;1016.7443892484282;;;15.97122765234845;0
55014;BME280;40916;51.632;5.552;2022-08-30T00:45:50;1016.7625101973751;;;15.945212825417116;0
55014;BME280;40916;51.632;5.552;2022-08-30T00:46:50;1016.6915122263727;;;15.932203385596338;0
55014;BME280;40916;51.632;5.552;2022-08-30T00:47:50;1016.773422968092;;;15.932203385596338;0
55014;BME280;40916;51.632;5.552;2022-08-30T00:48:50;1016.6762269973357;;;15.912686690713272;0
55014;BME280;40916;51.632;5.552;2022-08-30T00:49:51;1016.7768831982704;;;15.919192593825496;0
55014;BME280;40916;51.632;5.552;2022-08-30T00:50:51;1016.7691685056759;;;15.906180449318828;0
55014;BME280;40916;51.632;5.552;2022-08-30T00:51:50;1016.7724779779535;;;15.88665969445881;0
55014;BME280;40916;51.632;5.552;2022-08-30T00:52:51;1016.8171521909117;;;15.88665969445881;0
55014;BME280;40916;51.632;5.552;2022-08-30T00:53:51;1016.7833634047234;;;15.873644164670896;0
55014;BME280;40916;51.632;5.552;2022-08-30T00:54:51;1016.7906650926938;;;15.867135891517165;0
55014;BME280;40916;51.632;5.552;2022-08-30T00:55:51;1016.7866506196773;;;15.854118328197437;0
55014;BME280;40916;51.632;5.552;2022-08-30T00:56:51;1016.7902251283128;;;15.84760903783424;0
55014;BME280;40916;51.632;5.552;2022-08-30T00:57:52;1016.7823275713233;;;15.828079130747287;0
55014;BME280;40916;51.632;5.552;2022-08-30T00:58:52;1016.793494709714;;;15.828079130747287;0
55014;BME280;40916;51.632;5.552;2022-08-30T00:59:51;1016.7562709193494;;;15.828079130747287;0
55014;BME280;40916;51.632;5.552;2022-08-30T01:00:52;1016.7860499506648;;;15.828079130747287;0
55014;BME280;40916;51.632;5.552;2022-08-30T01:01:52;1016.8721209650668;;;15.84760903783424;0
55014;BME280;40916;51.632;5.552;2022-08-30T01:02:52;1016.8088378132976;;;15.84760903783424;0
55014;BME280;40916;51.632;5.552;2022-08-30T01:03:52;1016.8497857310033;;;15.84760903783424;0
55014;BME280;40916;51.632;5.552;2022-08-30T01:04:52;1016.7267934063997;;;15.841099408203952;0
55014;BME280;40916;51.632;5.552;2022-08-30T01:05:52;1016.8722701978949;;;15.854118328197437;0
55014;BME280;40916;51.632;5.552;2022-08-30T01:06:52;1016.83132169591;;;15.854118328197437;0
55014;BME280;40916;51.632;5.552;2022-08-30T01:07:52;1016.8429273558426;;;15.873644164670896;0
55014;BME280;40916;51.632;5.552;2022-08-30T01:08:52;1016.794387786591;;;15.867135891517165;0
55014;BME280;40916;51.632;5.552;2022-08-30T01:09:52;1016.8094226294934;;;15.873644164670896;0
55014;BME280;40916;51.632;5.552;2022-08-30T01:10:53;1016.7351093112486;;;15.880152098951942;0
55014;BME280;40916;51.632;5.552;2022-08-30T01:11:52;1016.8283207468976;;;15.88665969445881;0
55014;BME280;40916;51.632;5.552;2022-08-30T01:12:53;1016.847487731627;;;15.912686690713272;0
55014;BME280;40916;51.632;5.552;2022-08-30T01:13:53;1016.7910922312166;;;15.88665969445881;0
55014;BME280;40916;51.632;5.552;2022-08-30T01:14:53;1016.8433524204398;;;15.893166951289967;0
55014;BME280;40916;51.632;5.552;2022-08-30T01:15:53;1016.8914668826388;;;15.880152098951942;0
55014;BME280;40916;51.632;5.552;2022-08-30T01:16:54;1016.8578183485045;;;15.873644164670896;0
55014;BME280;40916;51.632;5.552;2022-08-30T01:17:53;1016.8874551736885;;;15.867135891517165;0
55014;BME280;40916;51.632;5.552;2022-08-30T01:18:55;1016.8165783565787;;;15.860627279392205;0
55014;BME280;40916;51.632;5.552;2022-08-30T01:19:54;1016.8308714477866;;;15.834589439207878;0
55014;BME280;40916;51.632;5.552;2022-08-30T01:20:55;1016.9687550091948;;;15.841099408203952;0
55014;BME280;40916;51.632;5.552;2022-08-30T01:21:55;1016.8935289633805;;;15.808546167590471;0
55014;BME280;40916;51.632;5.552;2022-08-30T01:22:59;1016.9121400936606;;;15.808546167590471;0
55014;BME280;40916;51.632;5.552;2022-08-30T01:23:54;1016.9712095379386;;;15.789010145694835;0
55014;BME280;40916;51.632;5.552;2022-08-30T01:24:55;1016.9786536803822;;;15.789010145694835;0
55014;BME280;40916;51.632;5.552;2022-08-30T01:25:54;1016.9969320328329;;;15.775984430479;0
55014;BME280;40916;51.632;5.552;2022-08-30T01:26:54;1016.9746002322366;;;15.775984430479;0
55014;BME280;40916;51.632;5.552;2022-08-30T01:27:55;1016.9746002322366;;;15.775984430479;0
55014;BME280;40916;51.632;5.552;2022-08-30T01:28:55;1016.9444882493264;;;15.762957353843682;0
55014;BME280;40916;51.632;5.552;2022-08-30T01:29:54;1016.9746002322366;;;15.775984430479;0
55014;BME280;40916;51.632;5.552;2022-08-30T01:30:54;1016.9563212545153;;;15.789010145694835;0
55014;BME280;40916;51.632;5.552;2022-08-30T01:31:55;1016.9559904017613;;;15.775984430479;0
55014;BME280;40916;51.632;5.552;2022-08-30T01:32:56;1016.9857661319858;;;15.775984430479;0
55014;BME280;40916;51.632;5.552;2022-08-30T01:33:55;1016.9822106730644;;;15.782497458214806;0
55014;BME280;40916;51.632;5.552;2022-08-30T01:34:55;1016.9823757517871;;;15.789010145694835;0
55014;BME280;40916;51.632;5.552;2022-08-30T01:35:59;1016.9485464704251;;;15.775984430479;0
55014;BME280;40916;51.632;5.552;2022-08-30T01:36:55;1016.9449904886022;;;15.782497458214806;0
55014;BME280;40916;51.632;5.552;2022-08-30T01:37:55;1016.8889950373044;;;15.775984430479;0
55014;BME280;40916;51.632;5.552;2022-08-30T01:38:56;1016.9678129190985;;;15.802034500283682;0
55014;BME280;40916;51.632;5.552;2022-08-30T01:39:55;1016.9603685677638;;;15.802034500283682;0
55014;BME280;40916;51.632;5.552;2022-08-30T01:40:56;1016.9155411917977;;;15.795522493018126;0
55014;BME280;40916;51.632;5.552;2022-08-30T01:41:56;1016.9869020533657;;;15.821568482723404;0
55014;BME280;40916;51.632;5.552;2022-08-30T01:42:56;1016.9197430212707;;;15.815057495037415;0
55014;BME280;40916;51.632;5.552;2022-08-30T01:43:57;1016.9084178673605;;;15.808546167590471;0
55014;BME280;40916;51.632;5.552;2022-08-30T01:44:56;1016.9419179084537;;;15.808546167590471;0
55014;BME280;40916;51.632;5.552;2022-08-30T01:45:56;1016.9530845910144;;;15.808546167590471;0
55014;BME280;40916;51.632;5.552;2022-08-30T01:46:56;1016.9938681526136;;;15.802034500283682;0
55014;BME280;40916;51.632;5.552;2022-08-30T01:47:56;1016.9527624146654;;;15.795522493018126;0
55014;BME280;40916;51.632;5.552;2022-08-30T01:48:56;1017.0009861106414;;;15.789010145694835;0
55014;BME280;40916;51.632;5.552;2022-08-30T01:49:56;1016.9485464704251;;;15.775984430479;0
55014;BME280;40916;51.632;5.552;2022-08-30T01:50:57;1016.9969320328329;;;15.775984430479;0
55014;BME280;40916;51.632;5.552;2022-08-30T01:51:57;1016.9441462740211;;;15.749928914995781;0
55014;BME280;40916;51.632;5.552;2022-08-30T01:52:57;1017.0001451130928;;;15.756443304745897;0
55014;BME280;40916;51.632;5.552;2022-08-30T01:53:57;1016.8947072814509;;;15.710835417236279;0
55014;BME280;40916;51.632;5.552;2022-08-30T01:54:57;1016.9095930407342;;;15.710835417236279;0
55014;BME280;40916;51.632;5.552;2022-08-30T01:55:57;1016.9466256724464;;;15.704318640139117;0
55014;BME280;40916;51.632;5.552;2022-08-30T01:56:57;1016.8822466844448;;;15.665210803677727;0
55014;BME280;40916;51.632;5.552;2022-08-30T01:57:57;1016.8556232274287;;;15.64565226918338;0
55014;BME280;40916;51.632;5.552;2022-08-30T01:58:57;1016.8885211679257;;;15.62609065358766;0
55014;BME280;40916;51.632;5.552;2022-08-30T01:59:58;1016.8689061521756;;;15.59348110670647;0
55014;BME280;40916;51.632;5.552;2022-08-30T02:00:58;1016.8757228398624;;;15.573911261640948;0
55014;BME280;40916;51.632;5.552;2022-08-30T02:01:58;1016.8037549868909;;;15.53476229577026;0
55014;BME280;40916;51.632;5.552;2022-08-30T02:02:58;1016.8628349677323;;;15.521709889167408;0
55014;BME280;40916;51.632;5.552;2022-08-30T02:03:58;1016.8812119527711;;;15.515183169542496;0
55014;BME280;40916;51.632;5.552;2022-08-30T02:04:58;1016.8947242706886;;;15.476015616921831;0
55014;BME280;40916;51.632;5.552;2022-08-30T02:06:00;1016.8858667084232;;;15.436835645936831;0
55014;BME280;40916;51.632;5.552;2022-08-30T02:06:58;1016.8365448640807;;;15.410708755416845;0
55014;BME280;40916;51.632;5.552;2022-08-30T02:07:58;1016.8581140257816;;;15.391109955245145;0
55014;BME280;40916;51.632;5.552;2022-08-30T02:08:59;1016.823887653403;;;15.371508038649132;0
55014;BME280;40916;51.632;5.552;2022-08-30T02:09:59;1016.8159388226412;;;15.358438361552256;0
55014;BME280;40916;51.632;5.552;2022-08-30T02:10:59;1016.8451695907647;;;15.345367297347945;0
55014;BME280;40916;51.632;5.552;2022-08-30T02:11:59;1016.810117015059;;;15.306145773956;0
55014;BME280;40916;51.632;5.552;2022-08-30T02:12:59;1016.8212715589464;;;15.306145773956;0
55014;BME280;40916;51.632;5.552;2022-08-30T02:13:59;1016.8244490158586;;;15.29306915318437;0
55014;BME280;40916;51.632;5.552;2022-08-30T02:14:59;1016.8127485723596;;;15.279991141233332;0
55014;BME280;40916;51.632;5.552;2022-08-30T02:15:59;1016.8090306016011;;;15.279991141233332;0
55014;BME280;40916;51.632;5.552;2022-08-30T02:16:59;1016.7290038388539;;;15.234207132075664;0
55014;BME280;40916;51.632;5.552;2022-08-30T02:18:00;1016.6915440725173;;;15.227665165299378;0
55014;BME280;40916;51.632;5.552;2022-08-30T02:19:00;1016.7730437267;;;15.221122849706266;0
55014;BME280;40916;51.632;5.552;2022-08-30T02:20:00;1016.7653209988034;;;15.214580185193913;0
55014;BME280;40916;51.632;5.552;2022-08-30T02:21:00;1016.7418521071388;;;15.188406035902318;0
55014;BME280;40916;51.632;5.552;2022-08-30T02:22:00;1016.7712948458951;;;15.181861625256076;0
55014;BME280;40916;51.632;5.552;2022-08-30T02:23:00;1016.7927028806699;;;15.16222629569895;0
55014;BME280;40916;51.632;5.552;2022-08-30T02:24:00;1016.8292680767847;;;15.14913432695137;0
55014;BME280;40916;51.632;5.552;2022-08-30T02:25:00;1016.7846650593846;;;15.14913432695137;0
55014;BME280;40916;51.632;5.552;2022-08-30T02:26:01;1016.686497132817;;;15.1163982774323;0
55014;BME280;40916;51.632;5.552;2022-08-30T02:27:01;1016.6149494080248;;;15.096752441783973;0
55014;BME280;40916;51.632;5.552;2022-08-30T02:28:01;1016.7109472415221;;;15.083653463826174;0
55014;BME280;40916;51.632;5.552;2022-08-30T02:29:03;1016.6734662187174;;;15.077103448279932;0
55014;BME280;40916;51.632;5.552;2022-08-30T02:30:03;1016.6944797626185;;;15.05089987323505;0
55014;BME280;40916;51.632;5.552;2022-08-30T02:31:01;1016.6820241539623;;;15.024690672649363;0
55014;BME280;40916;51.632;5.552;2022-08-30T02:32:01;1016.7337157443832;;;15.018137492735654;0
55014;BME280;40916;51.632;5.552;2022-08-30T02:33:02;1016.7590592391074;;;15.005030076461935;0
55014;BME280;40916;51.632;5.552;2022-08-30T02:34:01;1016.7472388799242;;;14.991921250901537;0
55014;BME280;40916;51.632;5.552;2022-08-30T02:35:02;1016.8066893240898;;;14.991921250901537;0
55014;BME280;40916;51.632;5.552;2022-08-30T02:36:02;1016.7799998526846;;;14.978811015223961;0
55014;BME280;40916;51.632;5.552;2022-08-30T02:37:02;1016.7718832059475;;;14.965699368598045;0
55014;BME280;40916;51.632;5.552;2022-08-30T02:38:02;1016.7458751168838;;;14.965699368598045;0
55014;BME280;40916;51.632;5.552;2022-08-30T02:39:02;1016.7718832059475;;;14.965699368598045;0
55014;BME280;40916;51.632;5.552;2022-08-30T02:40:02;1016.7830295316555;;;14.965699368598045;0
55014;BME280;40916;51.632;5.552;2022-08-30T02:41:02;1016.7533059988654;;;14.965699368598045;0
55014;BME280;40916;51.632;5.552;2022-08-30T02:42:02;1016.748899771276;;;14.952586310191979;0
55014;BME280;40916;51.632;5.552;2022-08-30T02:43:03;1016.8272690782552;;;14.959143015919544;0
55014;BME280;40916;51.632;5.552;2022-08-30T02:44:03;1016.7927858841687;;;14.939471839173297;0
55014;BME280;40916;51.632;5.552;2022-08-30T02:45:03;1016.7589981174292;;;14.932914073673903;0
55014;BME280;40916;51.632;5.552;2022-08-30T02:46:03;1016.7965011157185;;;14.939471839173297;0
55014;BME280;40916;51.632;5.552;2022-08-30T02:47:03;1016.8002163473899;;;14.939471839173297;0
55014;BME280;40916;51.632;5.552;2022-08-30T02:48:03;1016.7140644707721;;;14.926355954708882;0
55014;BME280;40916;51.632;5.552;2022-08-30T02:49:03;1016.7225452005878;;;14.94602925131127;0
55014;BME280;40916;51.632;5.552;2022-08-30T02:50:04;1016.7343843460537;;;14.959143015919544;0
55014;BME280;40916;51.632;5.552;2022-08-30T02:51:04;1016.7391288383324;;;14.978811015223961;0
55014;BME280;40916;51.632;5.552;2022-08-30T02:52:04;1016.7323762737464;;;14.991921250901537;0
55014;BME280;40916;51.632;5.552;2022-08-30T02:53:03;1016.6874505688443;;;14.98536630937933;0
55014;BME280;40916;51.632;5.552;2022-08-30T02:54:04;1016.6732620901246;;;14.99847583989446;0
55014;BME280;40916;51.632;5.552;2022-08-30T02:55:05;1016.6317166257729;;;14.98536630937933;0
55014;BME280;40916;51.632;5.552;2022-08-30T02:56:04;1016.6246224371372;;;14.991921250901537;0
55014;BME280;40916;51.632;5.552;2022-08-30T02:57:04;1016.6506319745426;;;14.991921250901537;0
55014;BME280;40916;51.632;5.552;2022-08-30T02:58:04;1016.6617789209688;;;14.991921250901537;0
55014;BME280;40916;51.632;5.552;2022-08-30T02:59:04;1016.6131386508284;;;14.98536630937933;0
55014;BME280;40916;51.632;5.552;2022-08-30T03:00:06;1016.5938831215335;;;14.97225536833152;0
55014;BME280;40916;51.632;5.552;2022-08-30T03:01:04;1016.5823958363187;;;14.965699368598045;0
55014;BME280;40916;51.632;5.552;2022-08-30T03:02:04;1016.5452414871975;;;14.965699368598045;0
55014;BME280;40916;51.632;5.552;2022-08-30T03:03:04;1016.5935421434259;;;14.965699368598045;0
55014;BME280;40916;51.632;5.552;2022-08-30T03:04:05;1016.5972575793713;;;14.965699368598045;0
55014;BME280;40916;51.632;5.552;2022-08-30T03:05:05;1016.5935421434259;;;14.965699368598045;0
55014;BME280;40916;51.632;5.552;2022-08-30T03:06:05;1016.5009959440735;;;14.97225536833152;0
55014;BME280;40916;51.632;5.552;2022-08-30T03:07:05;1016.5641592164791;;;14.97225536833152;0
55014;BME280;40916;51.632;5.552;2022-08-30T03:08:05;1016.5080871502336;;;14.965699368598045;0
55014;BME280;40916;51.632;5.552;2022-08-30T03:09:05;1016.5982762730613;;;14.98536630937933;0
55014;BME280;40916;51.632;5.552;2022-08-30T03:10:05;1016.6053692578563;;;14.978811015223961;0
55014;BME280;40916;51.632;5.552;2022-08-30T03:11:05;1016.6239469679443;;;14.978811015223961;0
55014;BME280;40916;51.632;5.552;2022-08-30T03:12:06;1016.583076009763;;;14.978811015223961;0
55014;BME280;40916;51.632;5.552;2022-08-30T03:13:06;1016.5948972588264;;;14.991921250901537;0
55014;BME280;40916;51.632;5.552;2022-08-30T03:14:06;1016.5496361458297;;;14.978811015223961;0
55014;BME280;40916;51.632;5.552;2022-08-30T03:15:07;1016.511802583383;;;14.965699368598045;0
55014;BME280;40916;51.632;5.552;2022-08-30T03:16:06;1016.5307198325934;;;14.97225536833152;0
55014;BME280;40916;51.632;5.552;2022-08-30T03:17:07;1016.4026872479267;;;14.939471839173297;0
55014;BME280;40916;51.632;5.552;2022-08-30T03:18:06;1016.514833875028;;;14.952586310191979;0
55014;BME280;40916;51.632;5.552;2022-08-30T03:19:06;1016.4469236238348;;;14.932914073673903;0
55014;BME280;40916;51.632;5.552;2022-08-30T03:20:07;1016.4955677540421;;;14.939471839173297;0
55014;BME280;40916;51.632;5.552;2022-08-30T03:21:08;1016.4603837358119;;;14.906679475977445;0
55014;BME280;40916;51.632;5.552;2022-08-30T03:22:06;1016.4485300876876;;;14.893560054249491;0
55014;BME280;40916;51.632;5.552;2022-08-30T03:23:07;1016.5005380139412;;;14.893560054249491;0
55014;BME280;40916;51.632;5.552;2022-08-30T03:24:07;1016.4846028282044;;;14.87387826570853;0
55014;BME280;40916;51.632;5.552;2022-08-30T03:25:07;1016.3947282036632;;;14.860755301495686;0
55014;BME280;40916;51.632;5.552;2022-08-30T03:26:07;1016.4898403066089;;;14.834505116857574;0
55014;BME280;40916;51.632;5.552;2022-08-30T03:27:07;1016.5462940910149;;;14.84763091882461;0
55014;BME280;40916;51.632;5.552;2022-08-30T03:28:07;1016.4853836186704;;;14.821377894756203;0
55014;BME280;40916;51.632;5.552;2022-08-30T03:29:07;1016.4281704179784;;;14.795119186793634;0
55014;BME280;40916;51.632;5.552;2022-08-30T03:30:08;1016.498358083242;;;14.78855362090723;0
55014;BME280;40916;51.632;5.552;2022-08-30T03:31:07;1016.407308756805;;;14.755720452844752;0
55014;BME280;40916;51.632;5.552;2022-08-30T03:32:07;1016.4585240692634;;;14.742584692294361;0
55014;BME280;40916;51.632;5.552;2022-08-30T03:33:08;1016.5097305384144;;;14.729447505722444;0
55014;BME280;40916;51.632;5.552;2022-08-30T03:34:08;1016.4784372967298;;;14.703168851138646;0
55014;BME280;40916;51.632;5.552;2022-08-30T03:35:08;1016.5489904194899;;;14.703168851138646;0
55014;BME280;40916;51.632;5.552;2022-08-30T03:36:08;1016.551900266506;;;14.690027381437403;0
55014;BME280;40916;51.632;5.552;2022-08-30T03:37:08;1016.5622302077365;;;14.676884482335918;0
55014;BME280;40916;51.632;5.552;2022-08-30T03:38:08;1016.5346027094374;;;14.65059439254614;0
55014;BME280;40916;51.632;5.552;2022-08-30T03:39:08;1016.6051478356674;;;14.65059439254614;0
55014;BME280;40916;51.632;5.552;2022-08-30T03:40:09;1016.5218052226397;;;14.624298574990501;0
55014;BME280;40916;51.632;5.552;2022-08-30T03:41:08;1016.6191702691298;;;14.637447200163145;0
55014;BME280;40916;51.632;5.552;2022-08-30T03:42:08;1016.6191702691298;;;14.637447200163145;0
55014;BME280;40916;51.632;5.552;2022-08-30T03:43:09;1016.5374887581412;;;14.637447200163145;0
55014;BME280;40916;51.632;5.552;2022-08-30T03:44:09;1016.5589321126331;;;14.624298574990501;0
55014;BME280;40916;51.632;5.552;2022-08-30T03:45:09;1016.599771705647;;;14.624298574990501;0
55014;BME280;40916;51.632;5.552;2022-08-30T03:46:09;1016.599771705647;;;14.624298574990501;0
55014;BME280;40916;51.632;5.552;2022-08-30T03:47:09;1016.5477940443606;;;14.624298574990501;0
55014;BME280;40916;51.632;5.552;2022-08-30T03:48:09;1016.5626448023003;;;14.624298574990501;0
55014;BME280;40916;51.632;5.552;2022-08-30T03:49:09;1016.5106671580089;;;14.624298574990501;0
55014;BME280;40916;51.632;5.552;2022-08-30T03:50:10;1016.5700701819983;;;14.624298574990501;0
55014;BME280;40916;51.632;5.552;2022-08-30T03:51:09;1016.5218052226397;;;14.624298574990501;0
55014;BME280;40916;51.632;5.552;2022-08-30T03:52:09;1016.5065362782474;;;14.617723724842765;0
55014;BME280;40916;51.632;5.552;2022-08-30T03:53:10;1016.5098291853959;;;14.611148516179178;0
55014;BME280;40916;51.632;5.552;2022-08-30T03:54:10;1016.5015603256221;;;14.597997022879483;0
55014;BME280;40916;51.632;5.552;2022-08-30T03:55:10;1016.5423975719578;;;14.597997022879483;0
55014;BME280;40916;51.632;5.552;2022-08-30T03:56:10;1016.5461100496258;;;14.597997022879483;0
55014;BME280;40916;51.632;5.552;2022-08-30T03:57:10;1016.5275476625001;;;14.597997022879483;0
55014;BME280;40916;51.632;5.552;2022-08-30T03:58:10;1016.4858612122417;;;14.584844094241046;0
55014;BME280;40916;51.632;5.552;2022-08-30T03:59:10;1016.5304096611457;;;14.584844094241046;0
55014;BME280;40916;51.632;5.552;2022-08-30T04:00:11;1016.5304096611457;;;14.584844094241046;0
55014;BME280;40916;51.632;5.552;2022-08-30T04:01:10;1016.6157942370648;;;14.584844094241046;0
55014;BME280;40916;51.632;5.552;2022-08-30T04:02:10;1016.5035673862569;;;14.571689729412824;0
55014;BME280;40916;51.632;5.552;2022-08-30T04:03:11;1016.5843732950112;;;14.55853392754311;0
55014;BME280;40916;51.632;5.552;2022-08-30T04:04:11;1016.6094877975364;;;14.545376687779513;0
55014;BME280;40916;51.632;5.552;2022-08-30T04:05:11;1016.5904902334704;;;14.53879752842095;0
55014;BME280;40916;51.632;5.552;2022-08-30T04:06:11;1016.5784755163761;;;14.52563813021683;0
55014;BME280;40916;51.632;5.552;2022-08-30T04:07:11;1016.5631865553038;;;14.51905789115775;0
55014;BME280;40916;51.632;5.552;2022-08-30T04:08:11;1016.6476693450647;;;14.50589633259144;0
55014;BME280;40916;51.632;5.552;2022-08-30T04:09:11;1016.590649994749;;;14.486151292017993;0
55014;BME280;40916;51.632;5.552;2022-08-30T04:10:11;1016.6008814665387;;;14.472986128571467;0
55014;BME280;40916;51.632;5.552;2022-08-30T04:11:11;1016.6078504401621;;;14.466403005607706;0
55014;BME280;40916;51.632;5.552;2022-08-30T04:12:11;1016.6783674766563;;;14.466403005607706;0
55014;BME280;40916;51.632;5.552;2022-08-30T04:13:12;1016.64776249918;;;14.453235676663386;0
55014;BME280;40916;51.632;5.552;2022-08-30T04:14:12;1016.5953457794013;;;14.446651470468375;0
55014;BME280;40916;51.632;5.552;2022-08-30T04:15:12;1016.6036836050104;;;14.459819521674081;0